CW1018 Tampa FL US current weather conditions

sailwx.info

Wind from 247

Air temperature 27.2° C

Last reported at 2019-Jul-23 19:00 UTC.
Time now 2019-Jul-23 19:43 UTC

Location: N 28°04' W 082°26'.
View on Google Maps.

See reports from other nearby stations

  
Tides and Currents Weather Stations Pressure Air Temp Water Temp Dewpoint Dewpoint Depression Visibility Wind Speed Wind Dir Waves Ship Positions
date/time (UTC)wind fromknots sea level pressurealtimeterstation pressurevisibilityair tempwater tempwave heightnotes
2019-Jul-23 19:00 247 27.2
2019-Jul-23 18:45 270 1 gusting 2 26.1
2019-Jul-23 18:30 135 26.1
2019-Jul-23 18:15 225 0 gusting 1 26.1
2019-Jul-23 18:00 157 4 gusting 5 25.6
2019-Jul-23 17:45 135 2 gusting 3 25.0
2019-Jul-23 17:30 360 24.4
2019-Jul-23 17:15 247 12 gusting 22 28.3
2019-Jul-23 17:00 270 2 gusting 5 30.0
2019-Jul-23 16:45 292 3 gusting 5 28.3
2019-Jul-23 16:30 292 6 gusting 12 28.9
2019-Jul-23 16:15 225 1 gusting 6 31.1
2019-Jul-23 16:00 180 0 gusting 2 32.2
2019-Jul-23 15:45 202 0 gusting 2 31.7
2019-Jul-23 15:30 202 2 gusting 4 31.7
2019-Jul-23 15:15 112 31.1
2019-Jul-23 15:00 180 2 gusting 5 31.1
2019-Jul-23 14:45 225 0 gusting 3 30.6
2019-Jul-23 14:30 202 1 gusting 4 28.9
2019-Jul-23 14:15 135 2 gusting 3 27.8
2019-Jul-23 14:00 112 3 gusting 4 28.3
2019-Jul-23 13:45 112 1 gusting 2 27.8
2019-Jul-23 13:30 135 1 gusting 4 26.7
2019-Jul-23 13:15 112 4 gusting 5 27.2
2019-Jul-23 13:00 135 1 gusting 2 26.7
2019-Jul-23 12:45 157 2 gusting 3 26.1
2019-Jul-23 12:30 112 2 gusting 3 25.6
2019-Jul-23 12:15 157 1 gusting 4 25.6
2019-Jul-23 12:00 112 3 gusting 3 25.0
2019-Jul-23 11:45 112 4 gusting 4 24.4
2019-Jul-23 11:30 112 24.4
2019-Jul-23 11:15 112 0 gusting 1 24.4
2019-Jul-23 11:00 112 2 gusting 2 24.4
2019-Jul-23 10:45 112 3 gusting 4 23.9
2019-Jul-23 10:30 112 3 gusting 4 23.9
2019-Jul-23 10:15 112 23.9
2019-Jul-23 10:00 112 3 gusting 3 23.9
2019-Jul-23 09:45 180 2 gusting 3 23.9
2019-Jul-23 09:30 112 3 gusting 3 23.9
2019-Jul-23 09:15 112 4 gusting 6 23.9
2019-Jul-23 09:00 112 6 gusting 6 23.9
2019-Jul-23 08:45 180 3 gusting 4 23.9
2019-Jul-23 08:30 112 3 gusting 4 23.9
2019-Jul-23 08:15 180 3 gusting 4 23.9
2019-Jul-23 08:00 180 4 gusting 5 23.9
2019-Jul-23 07:45 180 2 gusting 3 23.9
2019-Jul-23 07:30 180 2 gusting 3 24.4
2019-Jul-23 07:15 022 4 gusting 4 24.4
2019-Jul-23 07:00 022 2 gusting 3 23.9
2019-Jul-23 06:45 180 2 gusting 3 24.4
2019-Jul-23 06:30 022 2 gusting 2 23.9
2019-Jul-23 06:15 112 2 gusting 2 24.4
2019-Jul-23 06:00 360 24.4
2019-Jul-23 05:45 360 2 gusting 3 24.4
2019-Jul-23 05:30 360 2 gusting 3 24.4
2019-Jul-23 05:15 337 2 gusting 3 24.4
2019-Jul-23 05:00 337 24.4
2019-Jul-23 04:45 315 3 gusting 3 24.4
2019-Jul-23 04:30 247 0 gusting 1 24.4
2019-Jul-23 04:15 292 3 gusting 4 24.4
2019-Jul-23 04:00 157 2 gusting 3 24.4
2019-Jul-23 03:45 157 5 gusting 6 24.4
2019-Jul-23 03:30 157 6 gusting 6 24.4
2019-Jul-23 03:15 112 2 gusting 3 24.4
2019-Jul-23 03:00 112 2 gusting 3 23.9
2019-Jul-23 02:45 337 1 gusting 2 23.9
2019-Jul-23 02:30 337 4 gusting 5 23.9
2019-Jul-23 02:15 337 2 gusting 3 23.9
2019-Jul-23 02:00 337 2 gusting 3 23.9
2019-Jul-23 01:45 337 5 gusting 5 23.3
2019-Jul-23 01:30 315 3 gusting 4 23.3
2019-Jul-23 01:15 315 23.3
2019-Jul-23 01:00 337 3 gusting 5 22.8
2019-Jul-23 00:45 360 6 gusting 9 23.3
2019-Jul-23 00:30 337 6 gusting 9 23.9
2019-Jul-23 00:15 112 10 gusting 15 24.4
2019-Jul-23 00:00 180 13 gusting 18 25.0
2019-Jul-22 23:45 135 17 gusting 21 26.1
2019-Jul-22 23:30 135 1 gusting 2 30.0
2019-Jul-22 23:15 202 0 gusting 3 30.0
2019-Jul-22 23:00 157 0 gusting 1 29.4
2019-Jul-22 22:45 202 4 gusting 6 28.9
2019-Jul-22 22:30 247 4 gusting 6 27.8
2019-Jul-22 22:15 247 5 gusting 6 27.2
2019-Jul-22 22:00 247 3 gusting 3 26.7
2019-Jul-22 21:45 202 2 gusting 4 26.7
2019-Jul-22 21:30 180 0 gusting 1 26.7
2019-Jul-22 21:15 247 4 gusting 4 26.1
2019-Jul-22 21:00 202 1 gusting 4 26.1
2019-Jul-22 20:45 292 5 gusting 7 25.6
2019-Jul-22 20:30 292 5 gusting 8 25.0
2019-Jul-22 20:15 270 11 gusting 14 27.2
2019-Jul-22 20:00 270 5 gusting 9 29.4
2019-Jul-22 19:45 292 7 gusting 13 30.6
2019-Jul-22 19:30 315 8 gusting 10 30.6
2019-Jul-22 19:15 315 5 gusting 6 33.3
2019-Jul-22 19:00 292 1 gusting 2 32.8
2019-Jul-22 18:45 112 5 gusting 5 32.2
2019-Jul-22 18:30 112 5 gusting 6 33.3
2019-Jul-22 18:15 112 1 gusting 3 32.2
2019-Jul-22 18:00 112 5 gusting 6 31.7
2019-Jul-22 17:45 157 4 gusting 6 31.1
2019-Jul-22 17:30 180 5 gusting 7 31.7
2019-Jul-22 17:15 225 1 gusting 3 31.7
2019-Jul-22 17:00 112 1 gusting 2 30.6
2019-Jul-22 16:45 157 5 gusting 9 30.0
2019-Jul-22 16:30 112 3 gusting 5 30.0
2019-Jul-22 16:15 135 3 gusting 6 30.0
2019-Jul-22 16:00 112 1 gusting 4 30.0
2019-Jul-22 15:45 112 2 gusting 3 30.0
2019-Jul-22 15:30 135 6 gusting 8 28.9
2019-Jul-22 15:15 135 8 gusting 10 28.3
2019-Jul-22 15:00 112 5 gusting 6 28.9
2019-Jul-22 14:45 112 4 gusting 5 28.3
2019-Jul-22 14:30 180 5 gusting 6 27.8
2019-Jul-22 14:15 112 5 gusting 6 27.2
2019-Jul-22 14:00 112 4 gusting 6 27.2
2019-Jul-22 13:45 112 4 gusting 4 27.2
2019-Jul-22 13:30 112 5 gusting 6 26.7
2019-Jul-22 13:15 112 4 gusting 6 26.1
2019-Jul-22 13:00 112 5 gusting 6 26.1
2019-Jul-22 12:45 112 3 gusting 5 25.6
2019-Jul-22 12:30 112 4 gusting 5 25.6
2019-Jul-22 12:15 180 1 gusting 2 25.0
2019-Jul-22 12:00 112 2 gusting 3 24.4
2019-Jul-22 11:45 112 3 gusting 3 24.4
2019-Jul-22 11:30 180 2 gusting 3 23.9
2019-Jul-22 11:15 112 0 gusting 1 23.9
2019-Jul-22 11:00 180 2 gusting 2 23.9
2019-Jul-22 10:45 022 1 gusting 2 23.9
2019-Jul-22 10:30 180 3 gusting 3 23.9
2019-Jul-22 10:15 112 2 gusting 3 23.9
2019-Jul-22 10:00 112 1 gusting 2 23.9
2019-Jul-22 09:45 112 0 gusting 1 23.9
2019-Jul-22 09:30 112 23.9
2019-Jul-22 09:15 112 0 gusting 0 23.9
2019-Jul-22 09:00 112 4 gusting 4 23.9
2019-Jul-22 08:45 112 2 gusting 3 23.9
2019-Jul-22 08:30 135 23.9
2019-Jul-22 08:15 180 3 gusting 5 23.3
2019-Jul-22 08:00 180 0 gusting 2 23.3
2019-Jul-22 07:45 180 2 gusting 3 23.3
2019-Jul-22 07:30 180 1 gusting 1 23.9
2019-Jul-22 07:15 112 1 gusting 2 23.9
2019-Jul-22 07:00 360 1 gusting 2 23.9
2019-Jul-22 06:45 022 3 gusting 3 23.9
2019-Jul-22 06:30 112 0 gusting 1 23.9
2019-Jul-22 06:15 022 0 gusting 3 23.9
2019-Jul-22 06:00 360 3 gusting 5 23.9
2019-Jul-22 05:45 022 1 gusting 1 23.3
2019-Jul-22 05:30 180 3 gusting 5 23.9
2019-Jul-22 05:15 180 2 gusting 3 23.9
2019-Jul-22 05:00 180 4 gusting 5 23.9
2019-Jul-22 04:45 022 2 gusting 3 23.9
2019-Jul-22 04:30 180 4 gusting 4 24.4
2019-Jul-22 04:15 180 23.9
2019-Jul-22 04:00 112 24.4
2019-Jul-22 03:45 112 4 gusting 5 24.4
2019-Jul-22 03:30 157 2 gusting 3 23.9
2019-Jul-22 03:15 180 2 gusting 2 23.9
2019-Jul-22 03:00 180 6 gusting 6 24.4
2019-Jul-22 02:45 135 24.4
2019-Jul-22 02:30 112 5 gusting 6 23.9
2019-Jul-22 02:15 112 6 gusting 7 23.9
2019-Jul-22 02:00 112 6 gusting 8 23.9
2019-Jul-22 01:45 112 1 gusting 1 23.9
2019-Jul-22 01:30 180 2 gusting 2 23.9
2019-Jul-22 01:15 112 2 gusting 3 23.9
2019-Jul-22 01:00 112 2 gusting 3 24.4
2019-Jul-22 00:45 112 3 gusting 4 24.4
2019-Jul-22 00:30 112 5 gusting 6 24.4
2019-Jul-22 00:15 022 2 gusting 4 24.4
2019-Jul-22 00:00 022 2 gusting 3 24.4
2019-Jul-21 23:45 360 25.0
2019-Jul-21 23:30 337 3 gusting 4 25.0
2019-Jul-21 23:15 022 0 gusting 1 24.4
2019-Jul-21 23:00 022 3 gusting 3 25.0
2019-Jul-21 22:45 360 2 gusting 3 24.4
2019-Jul-21 22:30 270 1 gusting 3 24.4
2019-Jul-21 22:15 225 3 gusting 4 23.9
2019-Jul-21 21:59 337 23.9
2019-Jul-21 21:45 112 5 gusting 6 23.9
2019-Jul-21 21:30 180 4 gusting 6 24.4
2019-Jul-21 21:15 135 4 gusting 6 23.9
2019-Jul-21 20:59 112 6 gusting 10 23.9
2019-Jul-21 20:45 022 6 gusting 13 25.0
2019-Jul-21 20:30 180 9 gusting 13 27.2
2019-Jul-21 20:15 270 5 gusting 7 30.0
2019-Jul-21 19:59 225 7 gusting 10 29.4
2019-Jul-21 19:45 270 4 gusting 5 29.4
2019-Jul-21 19:30 247 6 gusting 8 28.9
2019-Jul-21 19:15 270 4 gusting 9 28.9